עמוד ראשי
METAR-TAF:

METAR-TAF

שדות תעופה :

Albert Whitted Airport

סיינט פיטרסברג, פלורידה, ארצות הברית

קו רוחב: 27-46-04N, קו אורך: 082-37-34W, גובה: 2מטר

תצפית מזג אוויר נוכחית

הדו"ח נערך לפני 7דקות, בשעה 19:53 UTC
רוח 22קשר מכיוון מזרח
טמפרטורת 33 צלסיוס
לחות 56%
לחץ 1014 hPa
ראות: 16.1קילומטר
שמיים נקיים

METAR: KSPG 171953Z 09022KT 10SM CLR 33/23 A2995 RMK AO2 SLP141 T03330233

זמן: 16:00 (20:00 UTC)


TAF: חסר

תצפיות ותחזיות מזג אוויר לגבי יותר מ- 4,000 שדות תעופה ברחבי העולם. דוחות METAR ו- TAF.

התחנות הזמינות מסומנות בנקודות צהובות ואדומות על גבי המפה.

העבר את העכבר לנקודה הצבעונית על מנת לראות את שם התחנה.

לאחר מכן, לחץ כדי לראות את תוכן ואת תחזיות מזג האוויר.

כדי לשנות את המפה: לחץ על הכפתורים הירוקים עם הפלוס השחור כדי להתקרב; על הכפתור הירוק עם המקף כדי להתרחק; או בחיצים הירוקים למפות סמוכות.


METAR-TAF: